Time;durP1;ratioP1;P1;durP2;ratioP2;P2;SDS_P1;SDS_P2;PMS_P1;PMS_P2;Temp;Humidity;BMP_temperature;BMP_pressure;BME280_temperature;BME280_humidity;BME280_pressure;Samples;Min_cycle;Max_cycle;Signal;HPM_P1;HPM_P2
2021/06/14 00:01:23;;;;;;;;;;;20.20;54.20;;;;;;5038764;28;19940;-60
2021/06/14 00:03:48;;;;;;;;;;;20.30;54.80;;;;;;5020095;28;19925;-59
2021/06/14 00:06:14;;;;;;;;;;;20.30;54.80;;;;;;5037390;28;20297;-60
2021/06/14 00:08:43;;;;;;;;;;;20.20;54.40;;;;;;5037484;28;19925;-59
2021/06/14 00:11:09;;;;;;;;;;;20.20;54.40;;;;;;5036274;28;20380;-61
2021/06/14 00:13:35;;;;;;;;;;;20.20;54.60;;;;;;5019165;28;19960;-60
2021/06/14 00:16:00;;;;;;;;;;;20.20;54.60;;;;;;5036410;28;19920;-60
2021/06/14 00:18:26;;;;;;;;;;;20.20;54.40;;;;;;5037123;28;19928;-60
2021/06/14 00:21:01;;;;;;;;;;;20.20;54.60;;;;;;5038300;28;19928;-60
2021/06/14 00:23:27;;;;;;;;;;;20.30;54.80;;;;;;5037843;28;19917;-60
2021/06/14 00:25:53;;;;;;;;;;;20.20;54.50;;;;;;5037853;28;20451;-59
2021/06/14 00:28:18;;;;;;;;;;;20.20;54.50;;;;;;5038253;28;19956;-60
2021/06/14 00:30:44;;;;;;;;;;;20.20;54.30;;;;;;5035796;28;19947;-61
2021/06/14 00:33:10;;;;;;;;;;;20.30;54.60;;;;;;5002388;28;19925;-60
2021/06/14 00:35:36;;;;;;;;;;;20.20;54.50;;;;;;5036721;28;19921;-60
2021/06/14 00:38:02;;;;;;;;;;;20.20;54.40;;;;;;5036676;28;19963;-61
2021/06/14 00:40:27;;;;;;;;;;;20.20;54.50;;;;;;5037025;28;19924;-62
2021/06/14 00:42:52;;;;;;;;;;;20.20;54.30;;;;;;5017617;28;19925;-61
2021/06/14 00:45:19;;;;;;;;;;;20.20;54.40;;;;;;5018802;28;19917;-61
2021/06/14 00:47:45;;;;;;;;;;;20.20;54.30;;;;;;5035359;28;19921;-62
2021/06/14 00:50:12;;;;;;;;;;;20.20;54.30;;;;;;5034069;28;20347;-61
2021/06/14 00:52:38;;;;;;;;;;;20.20;54.20;;;;;;5036389;28;19927;-60
2021/06/14 00:55:04;;;;;;;;;;;20.20;54.00;;;;;;5035189;28;19921;-60
2021/06/14 00:57:29;;;;;;;;;;;20.20;54.40;;;;;;5033581;28;19924;-60
2021/06/14 00:59:55;;;;;;;;;;;20.30;54.40;;;;;;5035677;28;19924;-62
2021/06/14 01:02:20;;;;;;;;;;;20.30;54.60;;;;;;5035292;28;19917;-60
2021/06/14 01:04:46;;;;;;;;;;;20.20;54.20;;;;;;5035557;28;19920;-60
2021/06/14 01:07:11;;;;;;;;;;;20.20;54.50;;;;;;5017969;28;19923;-60
2021/06/14 01:09:37;;;;;;;;;;;20.20;54.10;;;;;;5035044;28;19925;-60
2021/06/14 01:12:04;;;;;;;;;;;20.20;54.00;;;;;;5035968;28;20349;-61
2021/06/14 01:14:32;;;;;;;;;;;20.30;54.00;;;;;;5034149;28;19917;-59
2021/06/14 01:16:59;;;;;;;;;;;20.30;54.00;;;;;;5033918;28;19925;-60
2021/06/14 01:19:35;;;;;;;;;;;20.30;54.30;;;;;;5018063;28;20358;-60
2021/06/14 01:22:10;;;;;;;;;;;20.20;54.30;;;;;;5017979;28;20301;-61
2021/06/14 01:24:45;;;;;;;;;;;20.20;54.50;;;;;;5029971;28;19921;-60
2021/06/14 01:27:10;;;;;;;;;;;20.20;54.40;;;;;;5034072;28;20014;-60
2021/06/14 01:29:36;;;;;;;;;;;20.20;54.00;;;;;;5035897;28;19928;-59
2021/06/14 01:32:01;;;;;;;;;;;20.20;53.90;;;;;;5017365;28;20283;-61
2021/06/14 01:34:28;;;;;;;;;;;20.30;54.00;;;;;;5035606;28;19970;-61
2021/06/14 01:36:56;;;;;;;;;;;20.30;53.80;;;;;;5034000;28;19921;-60
2021/06/14 01:39:21;;;;;;;;;;;20.30;54.00;;;;;;5009906;28;19921;-60
2021/06/14 01:41:47;;;;;;;;;;;20.30;53.90;;;;;;5015726;28;19925;-60
2021/06/14 01:44:12;;;;;;;;;;;20.30;53.90;;;;;;5034145;28;19929;-60
2021/06/14 01:46:38;;;;;;;;;;;20.30;53.80;;;;;;5033910;28;19921;-60
2021/06/14 01:49:07;;;;;;;;;;;20.20;53.70;;;;;;5035117;28;19974;-60
2021/06/14 01:51:33;;;;;;;;;;;20.30;53.80;;;;;;5036573;28;19917;-59
2021/06/14 01:54:06;;;;;;;;;;;20.20;53.80;;;;;;5016736;28;19921;-60
2021/06/14 01:56:32;;;;;;;;;;;20.30;54.20;;;;;;5017735;28;19921;-61
2021/06/14 01:58:58;;;;;;;;;;;20.20;53.90;;;;;;5016437;28;19921;-59
2021/06/14 02:01:24;;;;;;;;;;;20.20;54.10;;;;;;5034876;28;19928;-61
2021/06/14 02:03:49;;;;;;;;;;;20.20;53.70;;;;;;5017698;28;19921;-61
2021/06/14 02:06:15;;;;;;;;;;;20.20;54.00;;;;;;5034120;28;19925;-60
2021/06/14 02:08:40;;;;;;;;;;;20.20;54.00;;;;;;5034576;28;19917;-60
2021/06/14 02:11:06;;;;;;;;;;;20.20;54.00;;;;;;5033989;28;19947;-61
2021/06/14 02:13:31;;;;;;;;;;;20.20;53.80;;;;;;5017608;28;19921;-61
2021/06/14 02:15:57;;;;;;;;;;;20.20;54.00;;;;;;5017153;28;19924;-61
2021/06/14 02:18:23;;;;;;;;;;;20.20;53.90;;;;;;5036470;28;20224;-60
2021/06/14 02:20:49;;;;;;;;;;;20.20;53.80;;;;;;5016976;28;19921;-60
2021/06/14 02:23:14;;;;;;;;;;;20.20;53.90;;;;;;5033451;28;19932;-60
2021/06/14 02:25:40;;;;;;;;;;;20.20;53.80;;;;;;5034188;28;19967;-59
2021/06/14 02:28:05;;;;;;;;;;;20.20;53.80;;;;;;5034526;28;19948;-59
2021/06/14 02:30:31;;;;;;;;;;;20.20;53.80;;;;;;5034046;28;19970;-60
2021/06/14 02:32:56;;;;;;;;;;;20.20;53.90;;;;;;5034137;28;19928;-59
2021/06/14 02:35:22;;;;;;;;;;;20.20;53.80;;;;;;5034494;28;19917;-59
2021/06/14 02:37:49;;;;;;;;;;;20.20;54.00;;;;;;5016796;28;19923;-59
2021/06/14 02:42:43;;;;;;;;;;;20.20;53.80;;;;;;5009979;28;19933;-63
2021/06/14 02:45:08;;;;;;;;;;;20.20;53.90;;;;;;5014310;28;19917;-60
2021/06/14 02:47:34;;;;;;;;;;;20.20;53.80;;;;;;4999455;28;19927;-62
2021/06/14 02:50:00;;;;;;;;;;;20.10;53.90;;;;;;4996786;28;19995;-59
2021/06/14 02:52:26;;;;;;;;;;;20.10;53.70;;;;;;4993551;28;20012;-63
2021/06/14 02:54:53;;;;;;;;;;;20.20;53.80;;;;;;5020290;28;19925;-61
2021/06/14 02:57:18;;;;;;;;;;;20.20;53.80;;;;;;4996494;28;20012;-60
2021/06/14 02:59:45;;;;;;;;;;;20.20;53.90;;;;;;5006073;28;20368;-61
2021/06/14 03:02:10;;;;;;;;;;;20.20;54.00;;;;;;5014606;28;20470;-62
2021/06/14 03:04:36;;;;;;;;;;;20.10;54.00;;;;;;4999477;28;19925;-61
2021/06/14 03:07:02;;;;;;;;;;;20.10;54.00;;;;;;5003990;28;20769;-62
2021/06/14 03:09:28;;;;;;;;;;;20.10;53.90;;;;;;5004485;28;19961;-61
2021/06/14 03:11:54;;;;;;;;;;;20.10;53.90;;;;;;5016960;28;19953;-62
2021/06/14 03:14:20;;;;;;;;;;;20.10;54.00;;;;;;5003726;28;20340;-62
2021/06/14 03:16:45;;;;;;;;;;;20.10;54.10;;;;;;5031201;28;19974;-63
2021/06/14 03:19:11;;;;;;;;;;;20.10;54.70;;;;;;5020925;28;20557;-62
2021/06/14 03:21:37;;;;;;;;;;;20.10;53.90;;;;;;5001504;28;19924;-63
2021/06/14 03:24:02;;;;;;;;;;;20.10;54.10;;;;;;5001203;28;19917;-63
2021/06/14 03:26:28;;;;;;;;;;;20.10;53.90;;;;;;5019569;28;19960;-63
2021/06/14 03:28:54;;;;;;;;;;;20.10;54.10;;;;;;4985757;28;19922;-63
2021/06/14 03:31:19;;;;;;;;;;;20.10;54.10;;;;;;5005643;28;19921;-63
2021/06/14 03:33:45;;;;;;;;;;;20.10;54.10;;;;;;5018947;28;19921;-61
2021/06/14 03:36:11;;;;;;;;;;;20.10;54.00;;;;;;5004806;28;19921;-62
2021/06/14 03:38:36;;;;;;;;;;;20.10;53.90;;;;;;5002296;28;19925;-63
2021/06/14 03:41:05;;;;;;;;;;;20.10;53.90;;;;;;5021316;28;19925;-63
2021/06/14 03:43:30;;;;;;;;;;;20.00;53.80;;;;;;4984639;28;19921;-64
2021/06/14 03:45:56;;;;;;;;;;;20.10;53.90;;;;;;5001483;28;19918;-63
2021/06/14 03:48:21;;;;;;;;;;;20.00;53.70;;;;;;5024456;28;20043;-62
2021/06/14 03:50:47;;;;;;;;;;;20.10;53.70;;;;;;5018231;28;19929;-63
2021/06/14 03:53:12;;;;;;;;;;;20.10;53.70;;;;;;5018766;28;20003;-63
2021/06/14 03:55:37;;;;;;;;;;;20.00;53.70;;;;;;5001035;28;19917;-62
2021/06/14 03:58:03;;;;;;;;;;;20.00;53.70;;;;;;5018534;28;19921;-61
2021/06/14 04:00:28;;;;;;;;;;;20.00;53.70;;;;;;5022702;28;19925;-61
2021/06/14 04:02:55;;;;;;;;;;;20.00;53.80;;;;;;5023233;28;20444;-61
2021/06/14 04:05:20;;;;;;;;;;;20.00;53.70;;;;;;5022705;28;19921;-60
2021/06/14 04:07:46;;;;;;;;;;;20.00;53.70;;;;;;5006215;28;20550;-60
2021/06/14 04:10:11;;;;;;;;;;;20.00;53.70;;;;;;5021479;28;19925;-62
2021/06/14 04:12:37;;;;;;;;;;;20.00;53.80;;;;;;5021651;28;19925;-61
2021/06/14 04:15:03;;;;;;;;;;;20.00;53.70;;;;;;5022524;28;19932;-61
2021/06/14 04:17:28;;;;;;;;;;;20.00;53.80;;;;;;5023378;28;20581;-62
2021/06/14 04:19:54;;;;;;;;;;;20.00;53.90;;;;;;5027473;28;19917;-61
2021/06/14 04:22:19;;;;;;;;;;;20.00;53.80;;;;;;5022388;28;20282;-61
2021/06/14 04:24:44;;;;;;;;;;;20.10;53.90;;;;;;5026730;28;19920;-61
2021/06/14 04:27:10;;;;;;;;;;;20.00;53.80;;;;;;5018578;28;19921;-61
2021/06/14 04:29:36;;;;;;;;;;;20.10;53.90;;;;;;5019022;28;20397;-62
2021/06/14 04:32:01;;;;;;;;;;;20.10;53.90;;;;;;5003254;28;19928;-64
2021/06/14 04:34:26;;;;;;;;;;;20.00;54.00;;;;;;5023491;28;19921;-61
2021/06/14 04:36:52;;;;;;;;;;;20.00;54.10;;;;;;5004392;28;20030;-62
2021/06/14 04:39:17;;;;;;;;;;;20.00;54.20;;;;;;5001078;28;19921;-63
2021/06/14 04:41:43;;;;;;;;;;;20.00;54.40;;;;;;5001272;28;19928;-61
2021/06/14 04:44:08;;;;;;;;;;;20.00;54.80;;;;;;5024941;28;19921;-63
2021/06/14 04:46:34;;;;;;;;;;;19.90;54.90;;;;;;5020625;28;20115;-62
2021/06/14 04:48:59;;;;;;;;;;;19.90;55.20;;;;;;5002060;28;19917;-63
2021/06/14 04:51:25;;;;;;;;;;;19.90;55.20;;;;;;5023144;28;20742;-62
2021/06/14 04:53:50;;;;;;;;;;;19.90;55.50;;;;;;5005775;28;20318;-61
2021/06/14 04:56:16;;;;;;;;;;;19.90;55.60;;;;;;5001355;28;19990;-63
2021/06/14 04:58:42;;;;;;;;;;;19.90;56.40;;;;;;5019383;28;19917;-63
2021/06/14 05:01:08;;;;;;;;;;;19.90;55.90;;;;;;5007248;28;20543;-63
2021/06/14 05:03:33;;;;;;;;;;;19.90;56.00;;;;;;5031639;28;19943;-63
2021/06/14 05:05:58;;;;;;;;;;;19.90;56.00;;;;;;5026729;28;20134;-63
2021/06/14 05:08:24;;;;;;;;;;;19.90;55.90;;;;;;5023116;28;19970;-62
2021/06/14 05:10:49;;;;;;;;;;;19.90;55.80;;;;;;5017492;28;19960;-62
2021/06/14 05:13:15;;;;;;;;;;;19.90;55.80;;;;;;5016724;28;20574;-62
2021/06/14 05:15:41;;;;;;;;;;;19.90;55.70;;;;;;5018670;28;19982;-63
2021/06/14 05:18:06;;;;;;;;;;;19.90;55.70;;;;;;5018810;28;20370;-61
2021/06/14 05:20:31;;;;;;;;;;;19.90;55.70;;;;;;4999619;28;20027;-62
2021/06/14 05:22:57;;;;;;;;;;;19.90;55.70;;;;;;5023991;28;20570;-62
2021/06/14 05:25:23;;;;;;;;;;;19.90;55.60;;;;;;4999656;28;20170;-62
2021/06/14 05:27:48;;;;;;;;;;;19.90;55.70;;;;;;5005493;28;20004;-62
2021/06/14 05:30:14;;;;;;;;;;;19.90;55.70;;;;;;5016940;28;20562;-62
2021/06/14 05:32:40;;;;;;;;;;;19.90;55.80;;;;;;5020385;28;20015;-62
2021/06/14 05:35:08;;;;;;;;;;;19.90;55.80;;;;;;5022681;28;20662;-61
2021/06/14 05:37:33;;;;;;;;;;;19.90;56.30;;;;;;5009321;28;20222;-61
2021/06/14 05:39:59;;;;;;;;;;;19.90;56.80;;;;;;5018848;28;20444;-61
2021/06/14 05:42:24;;;;;;;;;;;19.90;57.00;;;;;;5017548;28;20022;-62
2021/06/14 05:44:50;;;;;;;;;;;19.80;57.10;;;;;;5017025;28;19961;-60
2021/06/14 05:47:15;;;;;;;;;;;19.90;57.30;;;;;;5025682;28;19920;-62
2021/06/14 05:49:41;;;;;;;;;;;19.80;57.20;;;;;;5018012;28;20464;-62
2021/06/14 05:52:06;;;;;;;;;;;19.80;57.20;;;;;;5025916;28;19955;-62
2021/06/14 05:54:32;;;;;;;;;;;19.80;57.30;;;;;;5030588;28;20567;-63
2021/06/14 05:56:57;;;;;;;;;;;19.80;57.30;;;;;;5018263;28;19960;-61
2021/06/14 05:59:22;;;;;;;;;;;19.80;57.40;;;;;;5023904;28;19921;-60
2021/06/14 06:01:48;;;;;;;;;;;19.80;57.30;;;;;;5032433;28;19923;-62
2021/06/14 06:04:14;;;;;;;;;;;19.80;57.40;;;;;;5019009;28;20396;-61
2021/06/14 06:06:40;;;;;;;;;;;19.80;57.40;;;;;;5018603;28;19964;-59
2021/06/14 06:09:05;;;;;;;;;;;19.80;57.40;;;;;;4999845;28;19966;-61
2021/06/14 06:11:31;;;;;;;;;;;19.80;57.50;;;;;;4999508;28;20397;-63
2021/06/14 06:13:56;;;;;;;;;;;19.80;57.80;;;;;;5022508;28;19917;-61
2021/06/14 06:16:22;;;;;;;;;;;19.80;57.80;;;;;;5037753;28;20385;-62
2021/06/14 06:18:47;;;;;;;;;;;19.80;57.90;;;;;;5019813;28;20177;-61
2021/06/14 06:21:13;;;;;;;;;;;19.90;57.90;;;;;;5029188;28;19917;-61
2021/06/14 06:23:38;;;;;;;;;;;19.90;57.80;;;;;;5031214;28;19914;-61
2021/06/14 06:26:03;;;;;;;;;;;19.90;57.80;;;;;;5025906;28;20548;-62
2021/06/14 06:28:29;;;;;;;;;;;19.90;57.90;;;;;;5038122;28;19920;-61
2021/06/14 06:30:54;;;;;;;;;;;19.90;57.50;;;;;;5027417;28;19924;-60
2021/06/14 06:33:20;;;;;;;;;;;19.90;57.10;;;;;;5033594;28;19927;-62
2021/06/14 06:35:45;;;;;;;;;;;19.90;56.60;;;;;;5023106;28;19968;-62
2021/06/14 06:38:11;;;;;;;;;;;19.90;56.20;;;;;;5030116;28;19923;-61
2021/06/14 06:40:36;;;;;;;;;;;19.90;55.90;;;;;;5027708;28;20099;-61
2021/06/14 06:43:02;;;;;;;;;;;19.90;55.70;;;;;;5036898;28;19929;-63
2021/06/14 06:45:27;;;;;;;;;;;20.00;55.70;;;;;;5037031;28;20297;-61
2021/06/14 06:47:52;;;;;;;;;;;19.90;55.90;;;;;;5037272;28;19967;-60
2021/06/14 06:50:18;;;;;;;;;;;19.90;56.20;;;;;;5011392;28;20024;-60
2021/06/14 06:52:43;;;;;;;;;;;19.90;56.50;;;;;;5017337;28;19967;-62
2021/06/14 06:55:10;;;;;;;;;;;19.90;56.60;;;;;;5017679;28;20279;-62
2021/06/14 06:57:35;;;;;;;;;;;19.90;56.40;;;;;;5001068;28;19917;-62
2021/06/14 07:00:01;;;;;;;;;;;20.00;56.30;;;;;;5018227;28;19970;-63
2021/06/14 07:02:27;;;;;;;;;;;20.00;56.20;;;;;;5010934;28;19916;-62
2021/06/14 07:04:52;;;;;;;;;;;20.00;56.30;;;;;;5036468;28;19952;-62
2021/06/14 07:07:17;;;;;;;;;;;19.90;56.50;;;;;;5036373;28;20055;-62
2021/06/14 07:09:43;;;;;;;;;;;19.90;56.40;;;;;;5010528;28;19927;-61
2021/06/14 07:12:08;;;;;;;;;;;19.90;56.20;;;;;;5019671;28;19917;-62
2021/06/14 07:14:34;;;;;;;;;;;20.00;56.60;;;;;;5019064;28;19917;-61
2021/06/14 07:16:59;;;;;;;;;;;19.90;55.90;;;;;;5023649;28;19914;-62
2021/06/14 07:19:25;;;;;;;;;;;19.90;56.00;;;;;;5032053;28;19917;-62
2021/06/14 07:21:50;;;;;;;;;;;19.90;55.80;;;;;;5024459;28;20030;-61
2021/06/14 07:24:16;;;;;;;;;;;19.90;55.40;;;;;;5033921;28;20402;-62
2021/06/14 07:26:41;;;;;;;;;;;19.90;55.30;;;;;;5033725;28;19998;-62
2021/06/14 07:29:07;;;;;;;;;;;19.90;55.20;;;;;;5029819;28;20362;-62
2021/06/14 07:31:32;;;;;;;;;;;19.90;55.20;;;;;;5017664;28;19962;-62
2021/06/14 07:34:00;;;;;;;;;;;19.90;55.20;;;;;;5000078;28;19913;-62
2021/06/14 07:36:26;;;;;;;;;;;19.90;55.10;;;;;;5034524;28;19971;-62
2021/06/14 07:38:51;;;;;;;;;;;19.90;54.90;;;;;;5031251;28;19952;-61
2021/06/14 07:41:16;;;;;;;;;;;19.90;54.90;;;;;;5029337;28;20371;-61
2021/06/14 07:43:42;;;;;;;;;;;19.90;55.20;;;;;;5037249;28;20379;-61
2021/06/14 07:46:07;;;;;;;;;;;19.90;54.80;;;;;;5036334;28;19920;-61
2021/06/14 07:48:33;;;;;;;;;;;19.90;54.80;;;;;;5011085;28;19913;-62
2021/06/14 07:50:59;;;;;;;;;;;19.90;54.90;;;;;;5013716;28;20290;-62
2021/06/14 07:53:24;;;;;;;;;;;19.90;55.30;;;;;;5008868;28;20283;-62
2021/06/14 07:55:52;;;;;;;;;;;19.90;55.50;;;;;;5023623;28;19920;-61
2021/06/14 07:58:17;;;;;;;;;;;19.90;53.80;;;;;;5036960;28;19913;-61
2021/06/14 08:00:43;;;;;;;;;;;19.90;54.60;;;;;;5025444;28;19917;-61
2021/06/14 08:03:08;;;;;;;;;;;19.90;54.50;;;;;;5033095;28;19912;-60
2021/06/14 08:05:34;;;;;;;;;;;19.90;54.60;;;;;;5013337;28;19960;-61
2021/06/14 08:07:59;;;;;;;;;;;19.90;54.50;;;;;;5003045;28;19917;-60
2021/06/14 08:10:25;;;;;;;;;;;19.90;54.30;;;;;;5008194;28;19925;-59
2021/06/14 08:12:51;;;;;;;;;;;19.90;52.40;;;;;;5004002;28;19913;-59
2021/06/14 08:15:19;;;;;;;;;;;19.90;53.70;;;;;;5021388;28;20612;-60
2021/06/14 08:17:44;;;;;;;;;;;19.90;53.50;;;;;;5002300;28;20397;-60
2021/06/14 08:20:30;;;;;;;;;;;19.90;53.80;;;;;;4999861;28;19924;-61
2021/06/14 08:25:31;;;;;;;;;;;19.90;53.50;;;;;;5034405;28;20404;-60
2021/06/14 08:27:56;;;;;;;;;;;19.80;52.70;;;;;;5002734;28;19913;-60
2021/06/14 08:30:22;;;;;;;;;;;19.90;53.20;;;;;;5018774;28;19917;-61
2021/06/14 08:32:48;;;;;;;;;;;19.90;53.30;;;;;;5032722;28;19917;-60
2021/06/14 08:35:14;;;;;;;;;;;19.90;53.70;;;;;;5028176;28;20114;-60
2021/06/14 08:37:44;;;;;;;;;;;19.90;54.00;;;;;;5019779;28;19963;-61
2021/06/14 08:40:10;;;;;;;;;;;19.90;54.40;;;;;;5019896;28;19917;-61
2021/06/14 08:42:35;;;;;;;;;;;19.90;54.00;;;;;;5020097;28;19971;-66
2021/06/14 08:45:00;;;;;;;;;;;19.90;54.10;;;;;;5062605;22;19924;-67
2021/06/14 08:47:27;;;;;;;;;;;19.90;54.20;;;;;;5072803;28;20290;-66
2021/06/14 08:49:52;;;;;;;;;;;19.90;54.10;;;;;;5073677;28;19955;-67
2021/06/14 08:52:18;;;;;;;;;;;19.90;53.80;;;;;;5069210;28;20546;-67
2021/06/14 08:54:43;;;;;;;;;;;19.80;52.10;;;;;;5074667;28;19982;-65
2021/06/14 08:57:10;;;;;;;;;;;19.80;53.20;;;;;;5087504;28;19947;-67
2021/06/14 08:59:35;;;;;;;;;;;19.90;52.20;;;;;;5069593;28;19919;-67
2021/06/14 09:02:01;;;;;;;;;;;19.90;52.60;;;;;;5096759;28;19917;-65
2021/06/14 09:04:26;;;;;;;;;;;19.90;53.30;;;;;;5071746;28;19920;-67
2021/06/14 09:06:52;;;;;;;;;;;19.90;52.90;;;;;;5085123;28;19916;-67
2021/06/14 09:09:17;;;;;;;;;;;19.90;52.70;;;;;;5077299;28;19915;-67
2021/06/14 09:11:49;;;;;;;;;;;19.80;52.50;;;;;;5103441;28;20596;-68
2021/06/14 09:14:17;;;;;;;;;;;19.80;52.10;;;;;;5085591;28;19920;-68
2021/06/14 09:16:43;;;;;;;;;;;19.80;51.10;;;;;;5103627;28;19923;-67
2021/06/14 09:19:24;;;;;;;;;;;19.80;52.70;;;;;;5103942;28;20435;-66
2021/06/14 09:21:54;;;;;;;;;;;19.80;50.90;;;;;;5065225;28;20284;-66
2021/06/14 09:24:20;;;;;;;;;;;19.80;52.60;;;;;;5094554;28;19954;-64
2021/06/14 09:26:45;;;;;;;;;;;19.90;52.20;;;;;;5067413;28;19943;-67
2021/06/14 09:29:12;;;;;;;;;;;19.80;53.10;;;;;;5078978;28;20381;-67
2021/06/14 09:31:39;;;;;;;;;;;19.90;52.40;;;;;;5104517;28;19916;-67
2021/06/14 09:34:04;;;;;;;;;;;19.80;53.70;;;;;;5047876;28;19917;-67
2021/06/14 09:36:30;;;;;;;;;;;19.80;54.70;;;;;;5055689;28;20084;-67
2021/06/14 09:39:05;;;;;;;;;;;19.80;55.30;;;;;;5073175;28;20200;-67
2021/06/14 09:41:31;;;;;;;;;;;19.80;53.90;;;;;;5083105;28;19924;-67
2021/06/14 09:43:56;;;;;;;;;;;19.90;54.10;;;;;;5077681;28;19913;-67
2021/06/14 09:46:28;;;;;;;;;;;19.80;54.90;;;;;;5080845;28;19950;-67
2021/06/14 09:48:54;;;;;;;;;;;19.80;52.80;;;;;;5089149;28;19968;-65
2021/06/14 09:51:19;;;;;;;;;;;19.90;53.20;;;;;;5072120;28;19920;-66
2021/06/14 09:53:47;;;;;;;;;;;19.80;53.70;;;;;;5084271;28;19918;-66
2021/06/14 09:56:17;;;;;;;;;;;19.80;53.60;;;;;;5085405;28;19912;-65
2021/06/14 09:58:42;;;;;;;;;;;19.90;53.30;;;;;;5086741;28;20484;-67
2021/06/14 10:01:08;;;;;;;;;;;19.90;54.10;;;;;;5095297;28;19928;-66
2021/06/14 10:03:41;;;;;;;;;;;19.80;54.30;;;;;;5085975;28;19923;-67
2021/06/14 10:06:06;;;;;;;;;;;19.80;54.70;;;;;;5096053;28;19923;-65
2021/06/14 10:08:32;;;;;;;;;;;19.80;54.70;;;;;;5046773;28;19916;-67
2021/06/14 10:11:08;;;;;;;;;;;19.90;53.90;;;;;;5080266;28;20546;-68
2021/06/14 10:13:34;;;;;;;;;;;19.90;53.60;;;;;;5049506;28;19916;-65
2021/06/14 10:16:00;;;;;;;;;;;19.90;54.30;;;;;;5092316;28;20656;-67
2021/06/14 10:18:34;;;;;;;;;;;19.90;53.70;;;;;;5086125;28;19913;-67
2021/06/14 10:20:59;;;;;;;;;;;19.90;54.10;;;;;;5095828;28;19919;-67
2021/06/14 10:23:25;;;;;;;;;;;19.90;52.00;;;;;;5058061;28;19924;-67
2021/06/14 10:25:50;;;;;;;;;;;19.90;52.60;;;;;;5085525;28;19926;-66
2021/06/14 10:28:15;;;;;;;;;;;19.90;53.20;;;;;;5086049;28;19920;-65
2021/06/14 10:30:41;;;;;;;;;;;19.80;53.20;;;;;;5093787;28;19920;-66
2021/06/14 10:33:06;;;;;;;;;;;19.90;53.80;;;;;;5079936;28;19913;-66
2021/06/14 10:35:32;;;;;;;;;;;19.90;54.10;;;;;;5056274;28;19974;-66
2021/06/14 10:37:57;;;;;;;;;;;19.90;54.30;;;;;;5088278;28;19912;-66
2021/06/14 10:40:25;;;;;;;;;;;19.90;53.40;;;;;;5066035;28;19945;-67
2021/06/14 10:42:51;;;;;;;;;;;19.90;53.40;;;;;;5057023;28;20012;-66
2021/06/14 10:45:18;;;;;;;;;;;19.90;53.60;;;;;;5066608;28;20349;-63
2021/06/14 10:47:44;;;;;;;;;;;19.90;53.30;;;;;;5093557;28;19974;-64
2021/06/14 10:50:14;;;;;;;;;;;19.90;52.30;;;;;;5048035;28;20401;-66
2021/06/14 10:52:40;;;;;;;;;;;19.90;53.20;;;;;;5072621;28;19916;-66
2021/06/14 10:55:10;;;;;;;;;;;19.90;51.20;;;;;;5072274;28;19962;-66
2021/06/14 10:57:35;;;;;;;;;;;20.00;51.30;;;;;;5084456;28;20525;-67
2021/06/14 11:00:01;;;;;;;;;;;19.90;52.60;;;;;;5084186;28;20011;-67
2021/06/14 11:02:26;;;;;;;;;;;19.90;52.60;;;;;;5086676;28;19912;-67
2021/06/14 11:05:02;;;;;;;;;;;19.90;53.10;;;;;;5084140;28;19919;-67
2021/06/14 11:07:30;;;;;;;;;;;19.90;53.20;;;;;;5063372;28;19943;-67
2021/06/14 11:09:55;;;;;;;;;;;19.90;53.40;;;;;;5083089;28;19915;-66
2021/06/14 11:12:27;;;;;;;;;;;19.90;52.90;;;;;;5066511;28;20139;-67
2021/06/14 11:14:53;;;;;;;;;;;19.90;53.40;;;;;;5084264;28;19966;-67
2021/06/14 11:17:22;;;;;;;;;;;19.90;53.90;;;;;;5084186;28;19921;-67
2021/06/14 11:19:48;;;;;;;;;;;19.90;54.10;;;;;;5083593;28;19948;-68
2021/06/14 11:22:14;;;;;;;;;;;19.90;54.10;;;;;;5084010;28;19916;-66
2021/06/14 11:24:40;;;;;;;;;;;19.90;52.80;;;;;;5101686;28;19919;-67
2021/06/14 11:27:08;;;;;;;;;;;19.90;53.20;;;;;;5065942;28;19913;-67
2021/06/14 11:29:40;;;;;;;;;;;19.90;53.30;;;;;;5076269;28;20416;-65
2021/06/14 11:32:05;;;;;;;;;;;19.90;53.80;;;;;;5075674;28;19916;-66
2021/06/14 11:34:40;;;;;;;;;;;19.90;53.60;;;;;;5078390;28;19916;-65
2021/06/14 11:37:06;;;;;;;;;;;19.90;53.30;;;;;;5095657;28;19920;-63
2021/06/14 11:39:31;;;;;;;;;;;19.90;52.60;;;;;;5078402;28;20287;-65
2021/06/14 11:41:58;;;;;;;;;;;20.00;53.10;;;;;;5069896;28;19926;-65
2021/06/14 11:44:30;;;;;;;;;;;19.90;53.50;;;;;;5067803;28;19951;-67
2021/06/14 11:47:00;;;;;;;;;;;19.90;53.80;;;;;;5092333;28;19922;-64
2021/06/14 11:49:44;;;;;;;;;;;20.00;53.60;;;;;;5064197;28;19913;-67
2021/06/14 11:52:16;;;;;;;;;;;20.00;53.40;;;;;;5084360;28;19919;-66
2021/06/14 11:54:41;;;;;;;;;;;20.00;53.20;;;;;;5093933;28;19920;-64
2021/06/14 11:57:06;;;;;;;;;;;20.00;52.90;;;;;;5095309;28;19912;-67
2021/06/14 11:59:32;;;;;;;;;;;20.00;52.90;;;;;;5078514;28;19946;-66
2021/06/14 12:01:58;;;;;;;;;;;20.00;53.40;;;;;;5105635;28;19927;-66
2021/06/14 12:04:23;;;;;;;;;;;20.00;53.70;;;;;;5085078;28;20129;-67
2021/06/14 12:06:49;;;;;;;;;;;20.00;53.30;;;;;;5081175;28;19912;-67
2021/06/14 12:09:15;;;;;;;;;;;20.00;52.70;;;;;;5078165;28;20447;-67
2021/06/14 12:11:41;;;;;;;;;;;20.00;52.80;;;;;;5080470;28;20172;-66
2021/06/14 12:14:15;;;;;;;;;;;19.90;53.10;;;;;;5091478;28;19912;-65
2021/06/14 12:16:41;;;;;;;;;;;20.00;53.00;;;;;;5073849;28;19917;-67
2021/06/14 12:19:06;;;;;;;;;;;20.00;53.30;;;;;;5073920;28;20377;-64
2021/06/14 12:21:32;;;;;;;;;;;20.00;53.00;;;;;;5073720;28;19912;-67
2021/06/14 12:23:57;;;;;;;;;;;20.00;53.30;;;;;;5091789;28;20397;-66
2021/06/14 12:26:23;;;;;;;;;;;20.00;53.20;;;;;;5100599;28;19920;-66
2021/06/14 12:28:48;;;;;;;;;;;20.00;53.10;;;;;;5101212;28;19919;-66
2021/06/14 12:31:14;;;;;;;;;;;20.00;52.90;;;;;;5096005;28;19949;-67
2021/06/14 12:33:42;;;;;;;;;;;20.00;52.80;;;;;;5070118;28;19932;-66
2021/06/14 12:36:08;;;;;;;;;;;20.00;53.00;;;;;;5079688;28;19924;-65
2021/06/14 12:38:34;;;;;;;;;;;20.00;53.10;;;;;;5077553;28;19919;-65
2021/06/14 12:40:59;;;;;;;;;;;20.00;53.10;;;;;;5070828;28;19965;-65
2021/06/14 12:43:29;;;;;;;;;;;20.10;53.10;;;;;;5090710;28;20663;-66
2021/06/14 12:45:56;;;;;;;;;;;20.00;53.30;;;;;;5085336;28;20314;-63
2021/06/14 12:48:22;;;;;;;;;;;20.10;53.30;;;;;;5078374;28;19940;-65
2021/06/14 12:50:48;;;;;;;;;;;20.10;53.60;;;;;;5082766;28;20298;-65
2021/06/14 12:53:21;;;;;;;;;;;20.10;53.80;;;;;;5091419;28;20363;-65
2021/06/14 12:55:47;;;;;;;;;;;20.10;53.70;;;;;;5050399;28;20379;-65
2021/06/14 12:58:13;;;;;;;;;;;20.00;54.00;;;;;;5081839;28;20053;-66
2021/06/14 13:00:39;;;;;;;;;;;20.00;54.10;;;;;;5071956;28;19913;-65
2021/06/14 13:03:05;;;;;;;;;;;20.00;53.80;;;;;;5087618;28;20393;-65
2021/06/14 13:05:34;;;;;;;;;;;20.10;53.60;;;;;;5077863;28;19916;-65
2021/06/14 13:08:03;;;;;;;;;;;20.10;53.10;;;;;;5096211;28;20672;-67
2021/06/14 13:10:29;;;;;;;;;;;20.10;53.00;;;;;;5059607;28;19924;-65
2021/06/14 13:12:55;;;;;;;;;;;20.10;53.20;;;;;;5083150;28;20278;-65
2021/06/14 13:15:21;;;;;;;;;;;20.00;53.40;;;;;;5088953;28;19922;-66
2021/06/14 13:17:50;;;;;;;;;;;20.10;53.50;;;;;;5102746;28;19964;-66
2021/06/14 13:20:19;;;;;;;;;;;20.10;53.50;;;;;;5068641;28;19917;-66
2021/06/14 13:22:45;;;;;;;;;;;20.10;53.40;;;;;;5081065;28;19922;-65
2021/06/14 13:25:10;;;;;;;;;;;20.10;53.10;;;;;;5083950;28;19915;-66
2021/06/14 13:27:36;;;;;;;;;;;20.10;53.10;;;;;;5073163;28;19912;-66
2021/06/14 13:30:02;;;;;;;;;;;20.10;53.50;;;;;;5063661;28;19920;-65
2021/06/14 13:32:46;;;;;;;;;;;20.10;53.70;;;;;;5077067;28;19918;-66
2021/06/14 13:35:12;;;;;;;;;;;20.10;54.00;;;;;;5104370;28;19997;-66
2021/06/14 13:37:37;;;;;;;;;;;20.10;54.30;;;;;;5069833;28;20371;-66
2021/06/14 13:40:06;;;;;;;;;;;20.10;54.60;;;;;;5102004;28;20283;-65
2021/06/14 13:42:31;;;;;;;;;;;20.20;54.70;;;;;;5076129;28;19913;-66
2021/06/14 13:44:57;;;;;;;;;;;20.10;54.80;;;;;;5074676;28;20284;-65
2021/06/14 13:47:23;;;;;;;;;;;20.10;54.90;;;;;;5068673;28;19916;-66
2021/06/14 13:49:48;;;;;;;;;;;20.10;54.90;;;;;;5094496;28;19952;-66
2021/06/14 13:52:18;;;;;;;;;;;20.20;54.90;;;;;;5057320;28;19959;-65
2021/06/14 13:54:44;;;;;;;;;;;20.20;55.10;;;;;;5083950;28;19918;-65
2021/06/14 13:57:10;;;;;;;;;;;20.20;54.60;;;;;;5093146;28;19916;-65
2021/06/14 13:59:35;;;;;;;;;;;20.10;54.50;;;;;;5072760;28;19999;-65
2021/06/14 14:02:01;;;;;;;;;;;20.20;54.20;;;;;;5075095;28;20340;-65
2021/06/14 14:04:27;;;;;;;;;;;20.10;53.90;;;;;;5079079;28;19974;-66
2021/06/14 14:06:53;;;;;;;;;;;20.10;53.90;;;;;;5089891;28;19924;-66
2021/06/14 14:09:18;;;;;;;;;;;20.20;53.90;;;;;;5097338;28;20255;-66
2021/06/14 14:11:44;;;;;;;;;;;20.20;53.60;;;;;;5103655;28;19920;-66
2021/06/14 14:14:10;;;;;;;;;;;20.20;53.60;;;;;;5086611;28;20375;-65
2021/06/14 14:16:36;;;;;;;;;;;20.20;53.80;;;;;;5094691;28;19989;-66